Time;durP1;ratioP1;P1;durP2;ratioP2;P2;SDS_P1;SDS_P2;PMS_P1;PMS_P2;Temp;Humidity;BMP_temperature;BMP_pressure;BME280_temperature;BME280_humidity;BME280_pressure;Samples;Min_cycle;Max_cycle;Signal;HPM_P1;HPM_P2
2022/03/17 00:00:58;;;;;;;11.95;5.00;;;23.90;99.90;;;;;;5067807;28;20908;-89
2022/03/17 00:03:25;;;;;;;12.23;5.50;;;24.10;99.90;;;;;;5067892;28;20509;-80
2022/03/17 00:05:52;;;;;;;14.50;5.50;;;23.70;99.90;;;;;;5067665;28;20389;-89
2022/03/17 00:08:19;;;;;;;10.67;5.00;;;23.80;99.90;;;;;;5067728;28;20750;-77
2022/03/17 00:10:46;;;;;;;13.43;5.55;;;23.90;99.90;;;;;;5067888;28;20390;-78
2022/03/17 00:13:13;;;;;;;10.57;4.70;;;23.90;99.90;;;;;;5067862;28;20378;-79
2022/03/17 00:15:40;;;;;;;11.48;5.75;;;24.20;99.90;;;;;;5067823;28;20861;-80
2022/03/17 00:18:07;;;;;;;13.05;6.57;;;24.60;99.90;;;;;;5049788;28;20399;-82
2022/03/17 00:20:35;;;;;;;10.27;6.18;;;24.70;99.90;;;;;;5067409;28;20402;-80
2022/03/17 00:23:02;;;;;;;9.45;4.85;;;25.10;99.90;;;;;;5067397;28;20370;-84
2022/03/17 00:25:29;;;;;;;10.32;4.70;;;25.40;99.90;;;;;;5067502;28;20453;-88
2022/03/17 00:27:57;;;;;;;7.00;4.78;;;25.70;99.90;;;;;;5067422;28;20378;-84
2022/03/17 00:30:25;;;;;;;9.02;4.32;;;25.70;99.90;;;;;;5067554;28;20755;-81
2022/03/17 00:32:52;;;;;;;7.40;3.90;;;25.60;99.90;;;;;;5067475;28;20457;-77
2022/03/17 00:35:38;;;;;;;6.20;3.42;;;25.70;99.90;;;;;;5067494;28;20824;-82
2022/03/17 00:38:08;;;;;;;7.13;3.30;;;25.80;99.90;;;;;;5067254;28;20362;-78
2022/03/17 00:40:36;;;;;;;7.35;3.22;;;25.90;99.90;;;;;;5067099;28;20455;-82
2022/03/17 00:43:11;;;;;;;7.43;3.40;;;26.20;99.90;;;;;;5067010;28;20416;-87
2022/03/17 00:45:38;;;;;;;6.95;3.30;;;26.30;99.90;;;;;;5067404;28;20387;-88
2022/03/17 00:48:06;;;;;;;9.00;3.20;;;26.50;99.90;;;;;;5067297;28;20754;-89
2022/03/17 00:50:34;;;;;;;7.78;2.95;;;26.90;99.90;;;;;;5066913;28;20390;-80
2022/03/17 00:53:01;;;;;;;8.55;3.20;;;26.70;99.90;;;;;;5067462;28;20397;-78
2022/03/17 00:55:29;;;;;;;9.15;3.88;;;26.60;99.90;;;;;;5067367;28;20397;-78
2022/03/17 00:57:56;;;;;;;8.45;3.88;;;26.60;99.90;;;;;;5069249;28;20409;-77
2022/03/17 01:00:23;;;;;;;7.82;3.80;;;26.50;99.90;;;;;;5069760;28;20413;-77
2022/03/17 01:02:53;;;;;;;9.05;4.10;;;26.40;99.90;;;;;;5070165;28;20710;-87
2022/03/17 01:05:21;;;;;;;8.00;4.03;;;26.30;99.90;;;;;;5071356;28;20374;-81
2022/03/17 01:07:48;;;;;;;6.87;3.60;;;26.20;99.90;;;;;;5069282;28;20460;-85
2022/03/17 01:10:17;;;;;;;8.07;3.65;;;26.40;99.90;;;;;;5068093;28;20444;-82
2022/03/17 01:12:46;;;;;;;7.28;3.63;;;26.70;99.90;;;;;;5067480;28;20405;-89
2022/03/17 01:15:15;;;;;;;8.23;3.85;;;26.90;99.90;;;;;;5067790;28;20414;-88
2022/03/17 01:17:43;;;;;;;8.30;3.70;;;26.90;99.90;;;;;;5066964;28;20421;-88
2022/03/17 01:20:11;;;;;;;8.65;3.80;;;26.90;99.90;;;;;;5067656;28;20449;-82
2022/03/17 01:22:39;;;;;;;8.40;3.70;;;27.00;99.90;;;;;;5067165;28;20856;-90
2022/03/17 01:25:07;;;;;;;8.40;3.60;;;27.10;99.90;;;;;;5067639;28;20427;-84
2022/03/17 01:27:34;;;;;;;9.50;4.00;;;27.10;99.90;;;;;;5067694;28;20378;-79
2022/03/17 01:30:03;;;;;;;7.15;3.63;;;27.20;99.90;;;;;;5067861;28;20742;-83
2022/03/17 01:32:32;;;;;;;6.78;4.30;;;27.40;99.90;;;;;;5067237;28;20374;-85
2022/03/17 01:35:00;;;;;;;8.88;4.35;;;27.20;99.90;;;;;;5067693;28;20421;-90
2022/03/17 01:37:27;;;;;;;6.97;3.38;;;27.20;99.90;;;;;;5067559;28;20443;-80
2022/03/17 01:39:54;;;;;;;7.82;4.22;;;27.60;99.90;;;;;;5067039;28;20402;-78
2022/03/17 01:42:21;;;;;;;6.45;3.90;;;27.70;99.90;;;;;;5067191;28;20378;-90
2022/03/17 01:44:48;;;;;;;7.40;3.80;;;27.90;99.90;;;;;;5067207;28;20900;-79
2022/03/17 01:47:28;;;;;;;7.82;3.80;;;28.30;99.50;;;;;;5067603;28;20405;-80
2022/03/17 01:50:00;;;;;;;7.00;3.70;;;28.90;98.90;;;;;;5071695;28;20504;-88
2022/03/17 01:52:28;;;;;;;8.02;3.80;;;29.50;96.80;;;;;;5076564;28;20405;-78
2022/03/17 01:54:55;;;;;;;7.93;3.60;;;30.10;93.80;;;;;;5071163;28;20378;-82
2022/03/17 01:57:22;;;;;;;5.68;3.55;;;30.40;93.80;;;;;;5052814;28;20858;-79
2022/03/17 01:59:51;;;;;;;8.80;3.60;;;30.80;90.20;;;;;;5070554;28;20394;-87
2022/03/17 02:02:19;;;;;;;7.53;3.38;;;30.40;91.40;;;;;;5070518;28;20393;-85
2022/03/17 02:04:49;;;;;;;6.63;3.15;;;30.70;91.60;;;;;;5070501;28;20765;-84
2022/03/17 02:07:17;;;;;;;6.43;2.90;;;30.60;89.10;;;;;;5070901;28;20909;-78
2022/03/17 02:09:45;;;;;;;6.13;2.80;;;30.60;89.90;;;;;;5070955;28;20380;-90
2022/03/17 02:15:06;;;;;;;6.97;2.90;;;31.00;83.70;;;;;;5071000;28;20439;-78
2022/03/17 02:17:39;;;;;;;5.38;2.60;;;31.40;82.50;;;;;;5070272;28;20374;-84
2022/03/17 02:20:09;;;;;;;7.07;2.60;;;31.60;81.80;;;;;;5070653;28;20397;-77
2022/03/17 02:22:42;;;;;;;4.87;2.50;;;31.20;80.20;;;;;;5052472;28;20763;-78
2022/03/17 02:27:55;;;;;;;5.90;2.42;;;30.40;82.50;;;;;;5071544;28;20840;-91
2022/03/17 02:30:24;;;;;;;6.00;2.70;;;31.00;81.20;;;;;;5072484;28;20513;-79
2022/03/17 02:33:01;;;;;;;4.32;2.33;;;30.50;78.20;;;;;;5072956;28;20378;-86
2022/03/17 02:35:29;;;;;;;4.90;2.50;;;30.30;81.10;;;;;;5072311;28;20378;-80
2022/03/17 02:37:58;;;;;;;5.00;2.50;;;30.40;82.20;;;;;;5071543;28;20711;-89
2022/03/17 02:40:25;;;;;;;5.75;2.40;;;30.90;80.70;;;;;;5074173;28;20414;-94
2022/03/17 02:42:53;;;;;;;4.22;2.60;;;31.20;78.50;;;;;;5072693;28;20366;-92
2022/03/17 02:45:22;;;;;;;5.35;2.60;;;31.00;77.80;;;;;;5072796;28;20432;-87
2022/03/17 02:47:49;;;;;;;4.47;2.90;;;30.50;77.60;;;;;;5071345;28;20423;-87
2022/03/17 02:50:16;;;;;;;6.15;2.60;;;30.40;80.40;;;;;;5071600;28;20742;-82
2022/03/17 02:52:43;;;;;;;4.35;2.60;;;31.00;79.30;;;;;;5070872;28;20901;-91
2022/03/17 02:55:11;;;;;;;4.72;2.67;;;31.60;77.00;;;;;;5072527;28;20396;-93
2022/03/17 02:57:42;;;;;;;5.75;2.80;;;31.60;72.10;;;;;;5070684;28;20377;-83
2022/03/17 03:00:10;;;;;;;4.53;2.63;;;30.50;76.10;;;;;;5070963;28;20382;-93
2022/03/17 03:02:38;;;;;;;7.43;2.80;;;30.70;78.00;;;;;;5051017;28;20366;-90
2022/03/17 03:05:06;;;;;;;7.00;2.90;;;31.40;77.20;;;;;;5068165;28;20862;-87
2022/03/17 03:07:34;;;;;;;9.27;3.00;;;32.00;74.60;;;;;;5076829;28;20374;-82
2022/03/17 03:10:02;;;;;;;4.15;2.60;;;32.20;72.70;;;;;;5072772;28;20385;-87
2022/03/17 03:12:29;;;;;;;5.18;2.40;;;32.00;71.90;;;;;;5071112;28;20399;-79
2022/03/17 03:14:56;;;;;;;4.00;2.50;;;32.10;68.90;;;;;;5070981;28;20877;-87
2022/03/17 03:17:23;;;;;;;3.65;2.33;;;32.30;69.30;;;;;;5070295;28;20486;-87
2022/03/17 03:19:51;;;;;;;4.90;2.40;;;32.20;69.60;;;;;;5070080;28;20416;-81
2022/03/17 03:22:18;;;;;;;6.60;2.25;;;32.30;69.20;;;;;;5070321;28;20435;-86
2022/03/17 03:24:46;;;;;;;5.35;2.38;;;32.60;68.70;;;;;;5071839;28;20452;-93
2022/03/17 03:27:14;;;;;;;4.43;2.50;;;32.60;67.40;;;;;;5068539;28;20861;-93
2022/03/17 03:29:42;;;;;;;3.58;2.30;;;32.50;66.70;;;;;;5071441;28;20874;-81
2022/03/17 03:32:09;;;;;;;4.30;2.20;;;32.30;66.80;;;;;;5071597;28;20421;-91
2022/03/17 03:34:36;;;;;;;5.35;2.47;;;32.10;67.20;;;;;;5071020;28;20853;-91
2022/03/17 03:39:57;;;;;;;3.95;2.10;;;31.90;65.70;;;;;;5069658;28;20399;-80
2022/03/17 03:42:27;;;;;;;4.00;2.03;;;31.70;66.90;;;;;;5070383;28;20374;-89
2022/03/17 03:44:54;;;;;;;4.13;2.00;;;31.40;67.80;;;;;;5072664;28;20900;-86
2022/03/17 03:47:21;;;;;;;3.92;1.98;;;31.30;68.40;;;;;;5077215;28;20415;-89
2022/03/17 03:49:48;;;;;;;3.50;1.97;;;31.10;68.80;;;;;;5071126;28;20409;-86
2022/03/17 03:52:15;;;;;;;4.72;2.20;;;31.00;69.30;;;;;;5064595;28;20445;-87
2022/03/17 03:54:43;;;;;;;6.68;2.30;;;31.10;69.70;;;;;;5068724;28;20390;-89
2022/03/17 03:57:10;;;;;;;4.47;2.00;;;30.90;70.20;;;;;;5070058;28;20366;-77
2022/03/17 03:59:38;;;;;;;3.22;1.90;;;31.00;70.30;;;;;;5068798;28;20426;-79
2022/03/17 04:02:08;;;;;;;4.40;2.20;;;31.20;69.00;;;;;;5068431;28;20400;-88
2022/03/17 04:04:40;;;;;;;3.75;1.80;;;31.30;69.10;;;;;;5067946;28;20378;-90
2022/03/17 04:07:11;;;;;;;3.27;1.87;;;31.60;68.20;;;;;;5059157;28;20705;-86
2022/03/17 04:09:40;;;;;;;3.88;1.83;;;32.00;66.10;;;;;;5069488;28;20385;-83
2022/03/17 04:12:13;;;;;;;3.65;1.90;;;31.30;65.50;;;;;;5069037;28;20386;-82
2022/03/17 04:14:40;;;;;;;3.17;1.80;;;31.40;65.60;;;;;;5068875;28;20752;-91
2022/03/17 04:17:08;;;;;;;3.40;1.90;;;31.50;67.60;;;;;;5068073;28;20370;-79
2022/03/17 04:19:35;;;;;;;8.97;2.40;;;32.00;65.80;;;;;;5065084;28;20461;-84
2022/03/17 04:22:02;;;;;;;6.25;2.22;;;32.40;65.40;;;;;;5068390;28;20390;-84
2022/03/17 04:24:29;;;;;;;9.98;3.20;;;32.40;64.60;;;;;;5068276;28;20453;-90
2022/03/17 04:26:56;;;;;;;4.40;2.10;;;32.10;65.20;;;;;;5071165;28;20405;-84
2022/03/17 04:29:23;;;;;;;3.50;1.67;;;32.30;65.30;;;;;;5070884;28;20431;-81
2022/03/17 04:31:50;;;;;;;2.80;1.50;;;32.70;63.80;;;;;;5081590;28;20465;-82
2022/03/17 04:34:18;;;;;;;3.42;1.50;;;32.60;64.10;;;;;;5080449;28;20391;-82
2022/03/17 04:36:45;;;;;;;3.58;1.60;;;32.80;64.10;;;;;;5083650;28;20387;-81
2022/03/17 04:39:12;;;;;;;4.00;1.63;;;32.80;61.80;;;;;;5068351;28;21192;-85
2022/03/17 04:41:40;;;;;;;4.68;1.63;;;32.20;63.40;;;;;;5067983;28;20480;-79
2022/03/17 04:44:12;;;;;;;3.72;1.70;;;31.80;65.80;;;;;;5068606;28;20374;-84
2022/03/17 04:46:40;;;;;;;3.53;1.67;;;31.90;61.90;;;;;;5056932;28;20395;-94
2022/03/17 04:49:09;;;;;;;4.10;1.80;;;31.50;64.00;;;;;;5029365;28;20419;-79
2022/03/17 04:51:36;;;;;;;2.65;1.55;;;31.20;67.50;;;;;;5040650;28;20429;-82
2022/03/17 04:54:03;;;;;;;3.25;1.70;;;31.40;66.90;;;;;;5068810;28;20387;-84
2022/03/17 04:56:30;;;;;;;4.28;1.77;;;31.70;64.90;;;;;;5068358;28;20892;-91
2022/03/17 04:58:57;;;;;;;4.10;1.67;;;31.80;64.60;;;;;;5066657;28;20378;-95
2022/03/17 05:01:24;;;;;;;5.68;1.80;;;31.80;64.40;;;;;;5082191;28;20607;-90
2022/03/17 05:03:51;;;;;;;2.92;1.55;;;31.60;65.70;;;;;;5061652;28;20416;-80
2022/03/17 05:06:18;;;;;;;4.63;1.65;;;31.60;65.20;;;;;;5066981;28;20396;-85
2022/03/17 05:08:45;;;;;;;2.80;1.58;;;30.70;65.30;;;;;;5057741;28;20479;-88
2022/03/17 05:11:13;;;;;;;4.17;1.70;;;30.70;66.20;;;;;;5046385;28;20880;-84
2022/03/17 05:13:42;;;;;;;6.28;1.70;;;30.20;66.50;;;;;;5061976;28;20716;-85
2022/03/17 05:16:09;;;;;;;3.17;1.50;;;30.20;68.50;;;;;;5063551;28;20391;-79
2022/03/17 05:18:36;;;;;;;3.22;1.30;;;30.60;67.90;;;;;;5063902;28;20427;-83
2022/03/17 05:21:04;;;;;;;4.57;1.70;;;30.70;67.10;;;;;;5066088;28;20438;-81
2022/03/17 05:23:31;;;;;;;3.00;1.50;;;30.70;66.00;;;;;;5066879;28;20385;-84
2022/03/17 05:25:59;;;;;;;3.95;1.70;;;30.60;66.80;;;;;;5050901;28;20752;-82
2022/03/17 05:28:27;;;;;;;3.15;1.50;;;30.10;67.30;;;;;;5069655;28;20382;-76
2022/03/17 05:30:54;;;;;;;3.70;1.50;;;30.20;68.30;;;;;;5070452;28;20366;-76
2022/03/17 05:33:21;;;;;;;3.83;1.70;;;30.20;67.80;;;;;;5071361;28;20424;-78
2022/03/17 05:35:49;;;;;;;5.53;1.65;;;30.10;68.70;;;;;;5076765;28;20893;-79
2022/03/17 05:38:16;;;;;;;5.40;1.55;;;29.70;69.80;;;;;;5070364;28;20389;-85
2022/03/17 05:40:44;;;;;;;3.85;1.60;;;29.60;69.20;;;;;;5069617;28;20424;-83
2022/03/17 05:43:11;;;;;;;4.05;1.60;;;28.80;70.00;;;;;;5068601;28;20486;-76
2022/03/17 05:45:41;;;;;;;3.58;1.50;;;28.70;70.80;;;;;;5068593;28;20386;-85
2022/03/17 05:48:09;;;;;;;5.88;1.83;;;28.20;72.40;;;;;;5051227;28;20887;-84
2022/03/17 05:50:40;;;;;;;3.92;1.55;;;28.10;75.70;;;;;;5050421;28;20368;-77
2022/03/17 05:53:08;;;;;;;5.22;2.00;;;28.20;76.10;;;;;;5056244;28;20400;-77
2022/03/17 05:55:35;;;;;;;4.47;1.83;;;28.50;76.60;;;;;;5049526;28;20467;-88
2022/03/17 05:58:04;;;;;;;2.97;1.75;;;28.60;76.50;;;;;;5051234;28;20419;-85
2022/03/17 06:00:31;;;;;;;4.10;1.85;;;29.10;75.40;;;;;;5040221;28;20812;-86
2022/03/17 06:03:00;;;;;;;4.05;1.70;;;29.60;73.90;;;;;;5069653;28;20378;-87
2022/03/17 06:05:28;;;;;;;2.63;1.30;;;29.80;71.90;;;;;;5069824;28;20377;-86
2022/03/17 06:08:00;;;;;;;4.05;1.50;;;30.60;68.50;;;;;;5052757;28;20402;-86
2022/03/17 06:10:34;;;;;;;3.30;1.35;;;31.60;66.90;;;;;;5052326;28;20762;-85
2022/03/17 06:13:07;;;;;;;3.42;1.40;;;32.30;63.80;;;;;;5061779;28;20380;-80
2022/03/17 06:15:34;;;;;;;2.35;1.48;;;32.90;60.60;;;;;;5067689;28;20397;-84
2022/03/17 06:18:04;;;;;;;4.13;1.30;;;32.90;60.00;;;;;;5069754;28;20381;-80
2022/03/17 06:20:34;;;;;;;2.85;1.52;;;32.50;60.60;;;;;;5069074;28;20942;-86
2022/03/17 06:23:02;;;;;;;3.37;1.50;;;31.90;62.00;;;;;;5069335;28;20386;-82
2022/03/17 06:25:32;;;;;;;3.45;1.50;;;31.30;62.80;;;;;;5068422;28;20381;-84
2022/03/17 06:27:59;;;;;;;3.70;1.60;;;30.50;65.70;;;;;;5068377;28;20394;-83
2022/03/17 06:30:30;;;;;;;3.25;1.30;;;30.20;66.80;;;;;;5051751;28;20403;-84
2022/03/17 06:33:01;;;;;;;2.42;1.30;;;30.20;66.90;;;;;;5067241;28;20499;-78
2022/03/17 06:35:28;;;;;;;3.72;1.42;;;30.50;66.50;;;;;;5068777;28;20389;-85
2022/03/17 06:38:00;;;;;;;4.90;1.15;;;30.70;66.10;;;;;;5068794;28;20378;-82
2022/03/17 06:40:29;;;;;;;4.38;1.30;;;30.50;66.00;;;;;;5051529;28;20410;-85
2022/03/17 06:42:57;;;;;;;3.05;1.20;;;30.00;66.90;;;;;;5069306;28;20405;-85
2022/03/17 06:45:25;;;;;;;2.25;1.20;;;29.70;67.50;;;;;;5066381;28;20390;-81
2022/03/17 06:47:55;;;;;;;3.92;1.63;;;29.40;67.40;;;;;;5067843;28;20378;-78
2022/03/17 06:50:23;;;;;;;4.15;1.70;;;29.20;68.00;;;;;;5068800;28;20897;-82
2022/03/17 06:52:51;;;;;;;2.72;1.30;;;29.10;67.10;;;;;;5068583;28;20390;-83
2022/03/17 06:55:19;;;;;;;3.80;1.80;;;29.00;67.60;;;;;;5068707;28;20382;-79
2022/03/17 06:57:46;;;;;;;4.38;1.67;;;28.80;68.00;;;;;;5068828;28;20400;-82
2022/03/17 07:00:15;;;;;;;3.85;1.40;;;28.70;68.50;;;;;;5032224;28;20398;-83
2022/03/17 07:02:43;;;;;;;4.65;1.48;;;28.60;69.90;;;;;;5059721;28;20406;-81
2022/03/17 07:05:10;;;;;;;3.47;1.55;;;28.50;70.40;;;;;;5054936;28;20384;-91
2022/03/17 07:07:37;;;;;;;3.93;1.40;;;28.40;70.50;;;;;;5064344;28;20444;-80
2022/03/17 07:10:09;;;;;;;3.27;1.40;;;28.00;71.60;;;;;;5048755;28;20455;-80
2022/03/17 07:12:41;;;;;;;3.25;1.55;;;27.70;73.40;;;;;;5059444;28;20376;-81
2022/03/17 07:15:09;;;;;;;5.57;1.90;;;27.50;75.30;;;;;;5068350;28;20889;-79
2022/03/17 07:17:41;;;;;;;4.47;2.30;;;27.40;76.20;;;;;;5068423;28;20405;-83
2022/03/17 07:20:13;;;;;;;9.60;3.22;;;27.40;77.40;;;;;;5057794;28;20403;-79
2022/03/17 07:22:42;;;;;;;8.95;3.83;;;27.30;77.70;;;;;;5058472;28;20393;-79
2022/03/17 07:25:13;;;;;;;8.17;3.20;;;27.20;78.10;;;;;;5068311;28;20366;-78
2022/03/17 07:27:42;;;;;;;4.30;2.10;;;27.10;78.30;;;;;;5065301;28;20372;-84
2022/03/17 07:30:12;;;;;;;7.70;2.38;;;26.90;77.90;;;;;;5068694;28;20374;-89
2022/03/17 07:32:40;;;;;;;7.67;1.80;;;26.80;79.90;;;;;;5051718;28;20465;-80
2022/03/17 07:35:07;;;;;;;5.75;2.20;;;26.80;80.70;;;;;;5068225;28;20437;-81
2022/03/17 07:37:34;;;;;;;4.68;2.17;;;26.70;82.20;;;;;;5049514;28;20385;-84
2022/03/17 07:40:01;;;;;;;5.40;2.20;;;26.60;83.70;;;;;;5064442;28;20465;-80
2022/03/17 07:42:28;;;;;;;5.15;2.03;;;26.50;84.30;;;;;;5067456;28;20429;-79
2022/03/17 07:44:55;;;;;;;3.80;2.10;;;26.40;86.00;;;;;;5068006;28;20377;-78
2022/03/17 07:47:22;;;;;;;7.20;2.60;;;26.30;87.50;;;;;;5050129;28;20409;-84
2022/03/17 07:49:50;;;;;;;6.45;2.40;;;26.20;88.80;;;;;;5068820;28;20370;-82
2022/03/17 07:52:17;;;;;;;5.18;2.40;;;26.10;90.20;;;;;;5068761;28;20406;-76
2022/03/17 07:54:45;;;;;;;5.13;2.40;;;26.00;90.60;;;;;;5067849;28;20854;-81
2022/03/17 07:57:12;;;;;;;5.55;2.50;;;26.00;91.40;;;;;;5067945;28;20378;-76
2022/03/17 07:59:40;;;;;;;7.15;2.70;;;25.90;95.00;;;;;;5067800;28;20370;-84
2022/03/17 08:02:07;;;;;;;7.90;2.92;;;25.90;97.00;;;;;;5066920;28;20374;-78
2022/03/17 08:04:34;;;;;;;5.65;2.83;;;25.80;99.80;;;;;;5048655;28;20407;-80
2022/03/17 08:07:03;;;;;;;8.48;2.97;;;25.70;99.90;;;;;;5058710;28;20399;-84
2022/03/17 08:09:31;;;;;;;9.32;3.03;;;25.60;99.90;;;;;;5050048;28;20385;-78
2022/03/17 08:11:59;;;;;;;7.87;3.10;;;25.50;99.90;;;;;;5066690;28;20398;-79
2022/03/17 08:14:26;;;;;;;8.20;2.90;;;25.40;99.90;;;;;;5048385;28;20470;-77
2022/03/17 08:16:53;;;;;;;5.63;2.60;;;25.30;99.90;;;;;;5066866;28;20381;-76
2022/03/17 08:19:20;;;;;;;6.72;2.70;;;25.30;99.90;;;;;;5066319;28;20387;-76
2022/03/17 08:21:47;;;;;;;6.35;2.70;;;25.10;99.90;;;;;;5066936;28;20409;-85
2022/03/17 08:24:14;;;;;;;7.35;2.67;;;25.00;99.90;;;;;;5067038;28;20837;-81
2022/03/17 08:26:41;;;;;;;5.30;2.60;;;25.00;99.90;;;;;;5066555;28;20367;-81
2022/03/17 08:29:08;;;;;;;7.90;2.50;;;24.90;99.90;;;;;;5067114;28;20401;-77
2022/03/17 08:31:35;;;;;;;7.15;2.50;;;24.90;99.90;;;;;;5066592;28;20737;-76
2022/03/17 08:34:02;;;;;;;5.57;2.33;;;24.80;99.90;;;;;;5066473;28;20392;-78
2022/03/17 08:36:29;;;;;;;7.40;2.60;;;24.70;99.90;;;;;;5066920;28;20370;-82
2022/03/17 08:38:56;;;;;;;8.20;2.40;;;24.70;99.90;;;;;;5066764;28;20370;-81
2022/03/17 08:41:23;;;;;;;6.50;2.40;;;24.60;99.90;;;;;;5066844;28;20397;-77
2022/03/17 08:43:54;;;;;;;9.38;2.50;;;24.50;99.90;;;;;;5066838;28;20427;-77
2022/03/17 08:49:18;;;;;;;7.10;2.38;;;24.50;99.90;;;;;;5066773;28;20369;-80
2022/03/17 08:51:47;;;;;;;5.30;2.20;;;24.40;99.90;;;;;;5064934;28;20405;-77
2022/03/17 08:54:14;;;;;;;7.32;2.55;;;24.30;99.90;;;;;;5066794;28;20382;-84
2022/03/17 08:56:42;;;;;;;5.78;2.50;;;24.30;99.90;;;;;;5055791;28;20740;-81
2022/03/17 08:59:10;;;;;;;6.05;2.40;;;24.30;99.90;;;;;;5059216;28;20903;-85
2022/03/17 09:01:37;;;;;;;9.77;2.47;;;24.30;99.90;;;;;;5060849;28;20448;-83
2022/03/17 09:04:05;;;;;;;5.95;2.33;;;24.30;99.90;;;;;;5065421;28;21126;-76
2022/03/17 09:06:32;;;;;;;5.33;2.20;;;24.20;99.90;;;;;;5066531;28;20393;-82
2022/03/17 09:08:59;;;;;;;6.30;2.10;;;24.10;99.90;;;;;;5066196;28;20377;-82
2022/03/17 09:11:26;;;;;;;6.85;2.30;;;24.20;99.90;;;;;;5042345;28;20952;-80
2022/03/17 09:13:55;;;;;;;8.63;2.20;;;24.10;99.90;;;;;;5065629;28;20382;-81
2022/03/17 09:16:22;;;;;;;6.53;2.13;;;24.10;99.90;;;;;;5066088;28;20405;-75
2022/03/17 09:18:49;;;;;;;7.15;2.05;;;24.00;99.90;;;;;;5048779;28;20382;-79
2022/03/17 09:21:17;;;;;;;7.63;2.20;;;23.90;99.90;;;;;;5066476;28;20406;-79
2022/03/17 09:23:44;;;;;;;8.02;2.00;;;23.90;99.90;;;;;;5049216;28;20382;-78
2022/03/17 09:26:11;;;;;;;6.17;1.80;;;23.80;99.90;;;;;;5060549;28;20390;-81
2022/03/17 09:28:38;;;;;;;9.23;2.13;;;23.80;99.90;;;;;;5066560;28;20378;-75
2022/03/17 09:31:07;;;;;;;7.28;1.83;;;23.80;99.90;;;;;;5065569;28;20390;-76
2022/03/17 09:33:33;;;;;;;6.50;1.77;;;23.80;99.90;;;;;;5064211;28;20466;-77
2022/03/17 09:36:01;;;;;;;8.85;1.88;;;23.80;99.90;;;;;;5066105;28;20421;-78
2022/03/17 09:38:27;;;;;;;6.85;1.70;;;23.80;99.90;;;;;;5063761;28;20939;-76
2022/03/17 09:40:55;;;;;;;6.88;1.98;;;23.70;99.90;;;;;;5065318;28;20413;-81
2022/03/17 09:43:22;;;;;;;6.22;1.80;;;23.70;99.90;;;;;;5065732;28;20416;-78
2022/03/17 09:45:59;;;;;;;5.30;1.50;;;23.70;99.90;;;;;;5066282;28;20384;-77
2022/03/17 09:48:27;;;;;;;7.60;1.83;;;23.70;99.90;;;;;;5065562;28;20466;-74
2022/03/17 09:50:59;;;;;;;8.40;1.90;;;23.60;99.90;;;;;;5063000;28;20903;-76
2022/03/17 09:53:27;;;;;;;7.57;1.77;;;23.60;99.90;;;;;;5050341;28;20809;-81
2022/03/17 09:55:54;;;;;;;6.75;1.85;;;23.60;99.90;;;;;;5065608;28;20465;-76
2022/03/17 09:58:21;;;;;;;7.50;2.10;;;23.60;99.90;;;;;;5066063;28;20875;-80
2022/03/17 10:00:47;;;;;;;6.50;2.17;;;23.50;99.90;;;;;;5066119;28;20776;-81
2022/03/17 10:03:34;;;;;;;6.23;1.93;;;23.50;99.90;;;;;;5063605;28;20455;-76
2022/03/17 10:06:05;;;;;;;7.33;2.10;;;23.60;99.90;;;;;;5049825;28;20467;-80
2022/03/17 10:08:33;;;;;;;6.70;1.90;;;23.60;99.90;;;;;;5065299;28;20389;-77
2022/03/17 10:11:00;;;;;;;5.97;2.10;;;23.60;99.90;;;;;;5066615;28;20497;-79
2022/03/17 10:13:28;;;;;;;7.80;1.90;;;23.60;99.90;;;;;;5070032;28;20371;-82
2022/03/17 10:16:17;;;;;;;6.60;1.90;;;23.60;99.90;;;;;;5069524;28;20404;-75
2022/03/17 10:18:48;;;;;;;6.32;1.90;;;23.50;99.90;;;;;;5066096;28;20941;-84
2022/03/17 10:21:26;;;;;;;6.82;1.92;;;23.40;99.90;;;;;;5052083;28;20406;-78
2022/03/17 10:24:00;;;;;;;6.72;2.10;;;23.40;99.90;;;;;;5053615;28;20378;-81
2022/03/17 10:26:54;;;;;;;7.57;2.10;;;23.30;99.90;;;;;;5069181;28;20378;-81
2022/03/17 10:29:25;;;;;;;5.57;1.80;;;23.30;99.90;;;;;;5069292;28;20423;-80
2022/03/17 10:31:59;;;;;;;6.10;1.83;;;23.30;99.90;;;;;;5057181;28;20380;-77
2022/03/17 10:34:46;;;;;;;6.70;2.00;;;23.20;99.90;;;;;;5066761;28;20807;-77
2022/03/17 10:37:16;;;;;;;6.32;2.10;;;23.20;99.90;;;;;;5068304;28;20373;-81
2022/03/17 10:39:46;;;;;;;7.70;2.10;;;23.20;99.90;;;;;;5063366;28;20394;-81
2022/03/17 10:42:16;;;;;;;9.03;2.30;;;23.20;99.90;;;;;;5068893;28;20390;-78
2022/03/17 10:44:50;;;;;;;6.93;2.20;;;23.20;99.90;;;;;;5067312;28;20386;-81
2022/03/17 10:47:29;;;;;;;6.15;1.98;;;23.20;99.90;;;;;;5052797;28;20480;-82
2022/03/17 10:50:10;;;;;;;6.40;1.80;;;23.20;99.90;;;;;;5048098;28;20881;-75
2022/03/17 10:52:50;;;;;;;5.03;1.80;;;23.20;99.90;;;;;;5067761;28;20398;-77
2022/03/17 10:55:29;;;;;;;6.63;1.80;;;23.20;99.90;;;;;;5068468;28;20391;-80
2022/03/17 10:58:00;;;;;;;6.72;1.73;;;23.20;99.90;;;;;;5062643;28;20389;-82
2022/03/17 11:00:28;;;;;;;7.30;1.70;;;23.10;99.90;;;;;;5061212;28;20474;-81
2022/03/17 11:02:59;;;;;;;7.07;1.65;;;23.10;99.90;;;;;;5068530;28;20418;-81
2022/03/17 11:05:30;;;;;;;5.90;1.77;;;23.20;99.90;;;;;;5054457;28;20453;-82
2022/03/17 11:07:58;;;;;;;6.03;1.65;;;23.10;99.90;;;;;;5068057;28;20861;-79
2022/03/17 11:10:26;;;;;;;9.75;1.88;;;23.10;99.90;;;;;;5066859;28;20394;-75
2022/03/17 11:12:53;;;;;;;9.80;2.00;;;23.10;99.90;;;;;;5067810;28;20386;-77
2022/03/17 11:15:31;;;;;;;8.87;1.80;;;23.10;99.90;;;;;;5067657;28;20408;-82
2022/03/17 11:18:05;;;;;;;7.53;1.60;;;23.20;99.90;;;;;;5056573;28;21246;-81
2022/03/17 11:20:32;;;;;;;5.78;1.80;;;23.20;99.90;;;;;;5067959;28;20885;-79
2022/03/17 11:23:10;;;;;;;5.68;1.80;;;23.20;99.90;;;;;;5067602;28;20739;-79
2022/03/17 11:25:37;;;;;;;6.78;2.00;;;23.10;99.90;;;;;;5068227;28;20373;-79
2022/03/17 11:28:06;;;;;;;8.52;2.05;;;23.00;99.90;;;;;;5067754;28;20452;-79
2022/03/17 11:30:46;;;;;;;7.43;2.00;;;23.00;99.90;;;;;;5067146;28;20455;-76
2022/03/17 11:33:38;;;;;;;6.95;1.90;;;23.00;99.90;;;;;;5067890;28;20582;-76
2022/03/17 11:36:08;;;;;;;7.80;1.98;;;23.00;99.90;;;;;;5067795;28;20378;-76
2022/03/17 11:38:37;;;;;;;11.52;2.00;;;23.00;99.90;;;;;;5054502;28;20898;-81
2022/03/17 11:41:14;;;;;;;7.28;1.90;;;22.90;99.90;;;;;;5053111;28;20401;-76
2022/03/17 11:43:47;;;;;;;8.10;1.90;;;22.80;99.90;;;;;;5067860;28;20378;-76
2022/03/17 11:46:23;;;;;;;6.28;1.90;;;22.80;99.90;;;;;;5065575;28;20418;-79
2022/03/17 11:48:54;;;;;;;7.93;1.80;;;22.80;99.90;;;;;;5051064;28;20765;-78
2022/03/17 11:51:23;;;;;;;7.45;2.00;;;22.80;99.90;;;;;;5068663;28;20405;-77
2022/03/17 11:53:53;;;;;;;7.00;1.85;;;22.80;99.90;;;;;;5069286;28;20858;-82
2022/03/17 11:56:53;;;;;;;9.27;1.85;;;22.80;99.90;;;;;;5063853;28;20392;-76
2022/03/17 11:59:26;;;;;;;8.73;1.80;;;22.80;99.90;;;;;;5006019;28;20383;-80
2022/03/17 12:01:56;;;;;;;7.50;1.75;;;22.90;99.90;;;;;;5002689;28;20410;-80
2022/03/17 12:04:31;;;;;;;8.93;1.80;;;22.90;99.90;;;;;;5005505;28;20418;-82
2022/03/17 12:07:17;;;;;;;7.72;2.05;;;22.80;99.90;;;;;;4999266;28;20938;-77
2022/03/17 12:09:45;;;;;;;7.67;1.90;;;22.70;99.90;;;;;;4988846;28;20503;-76
2022/03/17 12:12:29;;;;;;;8.03;1.70;;;22.70;99.90;;;;;;5005435;28;20875;-79
2022/03/17 12:15:00;;;;;;;5.87;1.80;;;22.70;99.90;;;;;;5005488;28;20401;-78
2022/03/17 12:17:30;;;;;;;6.15;1.80;;;22.70;99.90;;;;;;5005086;28;20399;-80
2022/03/17 12:20:09;;;;;;;8.45;2.00;;;22.70;99.90;;;;;;5004843;28;20422;-78
2022/03/17 12:22:41;;;;;;;7.17;1.90;;;22.70;99.90;;;;;;5005272;28;20862;-75
2022/03/17 12:25:22;;;;;;;6.50;1.90;;;22.70;99.90;;;;;;5005354;28;20490;-81
2022/03/17 12:27:55;;;;;;;7.38;1.90;;;22.70;99.90;;;;;;4998050;28;21159;-77
2022/03/17 12:30:24;;;;;;;7.18;1.70;;;22.60;99.90;;;;;;5004871;28;20486;-82
2022/03/17 12:33:01;;;;;;;6.13;1.80;;;22.60;99.90;;;;;;5005197;28;20422;-77
2022/03/17 12:35:38;;;;;;;9.23;1.80;;;22.60;99.90;;;;;;5023784;28;20390;-77
2022/03/17 12:38:08;;;;;;;8.93;2.05;;;22.50;99.90;;;;;;5066850;28;20415;-78
2022/03/17 12:40:43;;;;;;;7.10;1.90;;;22.50;99.90;;;;;;5066089;28;20917;-81
2022/03/17 12:43:15;;;;;;;5.95;1.77;;;22.50;99.90;;;;;;5066190;28;20720;-76
2022/03/17 12:45:43;;;;;;;7.50;1.77;;;22.50;99.90;;;;;;5066863;28;20453;-77
2022/03/17 12:48:11;;;;;;;6.15;1.75;;;22.50;99.90;;;;;;5066421;28;20374;-80
2022/03/17 12:50:38;;;;;;;5.22;1.90;;;22.50;99.90;;;;;;5064014;28;20397;-76
2022/03/17 12:53:05;;;;;;;6.07;1.98;;;22.50;99.90;;;;;;5066347;28;20747;-75
2022/03/17 12:55:33;;;;;;;5.78;2.10;;;22.40;99.90;;;;;;5065297;28;20377;-81
2022/03/17 12:58:01;;;;;;;6.05;2.17;;;22.40;99.90;;;;;;5066374;28;20432;-77
2022/03/17 13:00:28;;;;;;;5.25;1.90;;;22.40;99.90;;;;;;5066056;28;20411;-80
2022/03/17 13:02:57;;;;;;;5.35;1.70;;;22.40;99.90;;;;;;5066363;28;20390;-83
2022/03/17 13:08:13;;;;;;;8.05;2.10;;;22.40;99.90;;;;;;5066485;28;20884;-80
2022/03/17 13:16:13;;;;;;;8.23;1.80;;;22.30;99.90;;;;;;5066300;28;20369;-77